sensor_id;sensor_type;location;lat;lon;timestamp;P1;durP1;ratioP1;P2;durP2;ratioP2
42036;SDS011;75222;52.004;5.908;2024-02-14T00:01:16;3.50;;;2.78;;
42036;SDS011;75222;52.004;5.908;2024-02-14T00:03:41;4.53;;;3.22;;
42036;SDS011;75222;52.004;5.908;2024-02-14T00:06:07;3.00;;;2.40;;
42036;SDS011;75222;52.004;5.908;2024-02-14T00:08:33;2.80;;;2.13;;
42036;SDS011;75222;52.004;5.908;2024-02-14T00:10:58;4.35;;;2.40;;
42036;SDS011;75222;52.004;5.908;2024-02-14T00:13:25;3.58;;;2.35;;
42036;SDS011;75222;52.004;5.908;2024-02-14T00:15:51;3.83;;;3.22;;
42036;SDS011;75222;52.004;5.908;2024-02-14T00:18:16;4.68;;;2.95;;
42036;SDS011;75222;52.004;5.908;2024-02-14T00:20:42;3.25;;;2.38;;
42036;SDS011;75222;52.004;5.908;2024-02-14T00:23:07;3.28;;;2.47;;
42036;SDS011;75222;52.004;5.908;2024-02-14T00:25:33;4.85;;;3.20;;
42036;SDS011;75222;52.004;5.908;2024-02-14T00:28:01;4.00;;;2.83;;
42036;SDS011;75222;52.004;5.908;2024-02-14T00:30:26;4.15;;;2.63;;
42036;SDS011;75222;52.004;5.908;2024-02-14T00:32:52;4.68;;;2.80;;
42036;SDS011;75222;52.004;5.908;2024-02-14T00:35:17;2.42;;;1.90;;
42036;SDS011;75222;52.004;5.908;2024-02-14T00:37:43;3.25;;;2.58;;
42036;SDS011;75222;52.004;5.908;2024-02-14T00:40:09;3.90;;;2.80;;
42036;SDS011;75222;52.004;5.908;2024-02-14T00:42:35;3.30;;;2.78;;
42036;SDS011;75222;52.004;5.908;2024-02-14T00:45:01;3.67;;;2.88;;
42036;SDS011;75222;52.004;5.908;2024-02-14T00:47:28;4.57;;;2.40;;
42036;SDS011;75222;52.004;5.908;2024-02-14T00:49:53;4.13;;;2.53;;
42036;SDS011;75222;52.004;5.908;2024-02-14T00:52:19;3.63;;;2.70;;
42036;SDS011;75222;52.004;5.908;2024-02-14T00:54:46;3.17;;;2.88;;
42036;SDS011;75222;52.004;5.908;2024-02-14T00:57:12;3.97;;;2.80;;
42036;SDS011;75222;52.004;5.908;2024-02-14T00:59:37;2.67;;;2.10;;
42036;SDS011;75222;52.004;5.908;2024-02-14T01:02:03;3.35;;;2.78;;
42036;SDS011;75222;52.004;5.908;2024-02-14T01:04:29;4.05;;;3.05;;
42036;SDS011;75222;52.004;5.908;2024-02-14T01:06:55;3.97;;;3.13;;
42036;SDS011;75222;52.004;5.908;2024-02-14T01:09:20;4.35;;;3.17;;
42036;SDS011;75222;52.004;5.908;2024-02-14T01:11:46;3.42;;;2.47;;
42036;SDS011;75222;52.004;5.908;2024-02-14T01:14:13;2.22;;;2.03;;
42036;SDS011;75222;52.004;5.908;2024-02-14T01:16:45;3.00;;;2.42;;
42036;SDS011;75222;52.004;5.908;2024-02-14T01:19:11;4.78;;;3.28;;
42036;SDS011;75222;52.004;5.908;2024-02-14T01:21:37;4.43;;;3.30;;
42036;SDS011;75222;52.004;5.908;2024-02-14T01:24:03;3.20;;;2.50;;
42036;SDS011;75222;52.004;5.908;2024-02-14T01:26:30;5.45;;;3.78;;
42036;SDS011;75222;52.004;5.908;2024-02-14T01:28:56;5.15;;;2.97;;
42036;SDS011;75222;52.004;5.908;2024-02-14T01:31:21;4.07;;;3.10;;
42036;SDS011;75222;52.004;5.908;2024-02-14T01:33:47;4.10;;;3.10;;
42036;SDS011;75222;52.004;5.908;2024-02-14T01:36:13;4.47;;;3.13;;
42036;SDS011;75222;52.004;5.908;2024-02-14T01:38:38;4.38;;;3.08;;
42036;SDS011;75222;52.004;5.908;2024-02-14T01:41:04;4.63;;;3.50;;
42036;SDS011;75222;52.004;5.908;2024-02-14T01:43:30;4.38;;;3.00;;
42036;SDS011;75222;52.004;5.908;2024-02-14T01:45:57;4.28;;;3.00;;
42036;SDS011;75222;52.004;5.908;2024-02-14T01:48:30;5.15;;;3.60;;
42036;SDS011;75222;52.004;5.908;2024-02-14T01:50:56;4.60;;;2.83;;
42036;SDS011;75222;52.004;5.908;2024-02-14T01:53:22;4.75;;;3.40;;
42036;SDS011;75222;52.004;5.908;2024-02-14T01:55:50;5.47;;;3.65;;
42036;SDS011;75222;52.004;5.908;2024-02-14T01:58:16;3.50;;;2.75;;
42036;SDS011;75222;52.004;5.908;2024-02-14T02:00:42;4.20;;;2.40;;
42036;SDS011;75222;52.004;5.908;2024-02-14T02:03:09;3.45;;;2.20;;
42036;SDS011;75222;52.004;5.908;2024-02-14T02:05:35;2.40;;;2.00;;
42036;SDS011;75222;52.004;5.908;2024-02-14T02:08:01;5.03;;;3.50;;
42036;SDS011;75222;52.004;5.908;2024-02-14T02:10:27;4.82;;;2.92;;
42036;SDS011;75222;52.004;5.908;2024-02-14T02:12:59;6.05;;;4.00;;
42036;SDS011;75222;52.004;5.908;2024-02-14T02:17:53;5.95;;;3.60;;
42036;SDS011;75222;52.004;5.908;2024-02-14T02:20:19;5.93;;;3.17;;
42036;SDS011;75222;52.004;5.908;2024-02-14T02:22:46;6.38;;;3.08;;
42036;SDS011;75222;52.004;5.908;2024-02-14T02:25:13;4.00;;;2.67;;
42036;SDS011;75222;52.004;5.908;2024-02-14T02:27:38;4.90;;;2.80;;
42036;SDS011;75222;52.004;5.908;2024-02-14T02:30:05;4.75;;;3.35;;
42036;SDS011;75222;52.004;5.908;2024-02-14T02:32:31;4.15;;;2.72;;
42036;SDS011;75222;52.004;5.908;2024-02-14T02:34:57;3.30;;;2.22;;
42036;SDS011;75222;52.004;5.908;2024-02-14T02:37:23;4.15;;;2.75;;
42036;SDS011;75222;52.004;5.908;2024-02-14T02:39:49;3.90;;;2.53;;
42036;SDS011;75222;52.004;5.908;2024-02-14T02:42:16;4.25;;;2.70;;
42036;SDS011;75222;52.004;5.908;2024-02-14T02:44:45;3.80;;;2.72;;
42036;SDS011;75222;52.004;5.908;2024-02-14T02:47:12;4.38;;;2.80;;
42036;SDS011;75222;52.004;5.908;2024-02-14T02:49:37;3.70;;;2.28;;
42036;SDS011;75222;52.004;5.908;2024-02-14T02:52:03;2.50;;;2.05;;
42036;SDS011;75222;52.004;5.908;2024-02-14T02:54:29;3.85;;;2.30;;
42036;SDS011;75222;52.004;5.908;2024-02-14T02:56:54;5.70;;;3.00;;
42036;SDS011;75222;52.004;5.908;2024-02-14T02:59:20;4.10;;;2.67;;
42036;SDS011;75222;52.004;5.908;2024-02-14T03:01:46;3.55;;;2.75;;
42036;SDS011;75222;52.004;5.908;2024-02-14T03:04:14;4.28;;;3.10;;
42036;SDS011;75222;52.004;5.908;2024-02-14T03:06:40;6.22;;;3.90;;
42036;SDS011;75222;52.004;5.908;2024-02-14T03:09:08;4.15;;;2.58;;
42036;SDS011;75222;52.004;5.908;2024-02-14T03:11:34;2.42;;;2.05;;
42036;SDS011;75222;52.004;5.908;2024-02-14T03:14:00;2.85;;;2.40;;
42036;SDS011;75222;52.004;5.908;2024-02-14T03:16:26;3.45;;;2.55;;
42036;SDS011;75222;52.004;5.908;2024-02-14T03:18:52;5.32;;;3.63;;
42036;SDS011;75222;52.004;5.908;2024-02-14T03:21:19;5.38;;;3.22;;
42036;SDS011;75222;52.004;5.908;2024-02-14T03:23:45;4.70;;;3.53;;
42036;SDS011;75222;52.004;5.908;2024-02-14T03:26:10;4.90;;;3.60;;
42036;SDS011;75222;52.004;5.908;2024-02-14T03:28:36;6.97;;;3.65;;
42036;SDS011;75222;52.004;5.908;2024-02-14T03:31:02;5.25;;;3.30;;
42036;SDS011;75222;52.004;5.908;2024-02-14T03:33:27;5.15;;;3.53;;
42036;SDS011;75222;52.004;5.908;2024-02-14T03:35:54;2.53;;;2.03;;
42036;SDS011;75222;52.004;5.908;2024-02-14T03:38:26;3.70;;;2.95;;
42036;SDS011;75222;52.004;5.908;2024-02-14T03:40:52;2.72;;;2.30;;
42036;SDS011;75222;52.004;5.908;2024-02-14T03:43:19;2.67;;;2.10;;
42036;SDS011;75222;52.004;5.908;2024-02-14T03:45:44;4.10;;;3.10;;
42036;SDS011;75222;52.004;5.908;2024-02-14T03:48:11;5.00;;;3.00;;
42036;SDS011;75222;52.004;5.908;2024-02-14T03:50:39;3.55;;;2.72;;
42036;SDS011;75222;52.004;5.908;2024-02-14T03:53:05;2.95;;;2.35;;
42036;SDS011;75222;52.004;5.908;2024-02-14T03:55:31;4.47;;;2.70;;
42036;SDS011;75222;52.004;5.908;2024-02-14T03:57:56;5.20;;;3.30;;
42036;SDS011;75222;52.004;5.908;2024-02-14T04:00:22;4.55;;;3.00;;
42036;SDS011;75222;52.004;5.908;2024-02-14T04:02:48;5.80;;;3.10;;
42036;SDS011;75222;52.004;5.908;2024-02-14T04:05:14;6.13;;;3.47;;
42036;SDS011;75222;52.004;5.908;2024-02-14T04:07:40;5.00;;;3.20;;
42036;SDS011;75222;52.004;5.908;2024-02-14T04:10:05;4.47;;;3.17;;
42036;SDS011;75222;52.004;5.908;2024-02-14T04:12:31;6.55;;;4.10;;
42036;SDS011;75222;52.004;5.908;2024-02-14T04:14:57;4.03;;;3.00;;
42036;SDS011;75222;52.004;5.908;2024-02-14T04:17:23;6.30;;;3.80;;
42036;SDS011;75222;52.004;5.908;2024-02-14T04:19:49;4.35;;;2.90;;
42036;SDS011;75222;52.004;5.908;2024-02-14T04:22:15;5.18;;;3.20;;
42036;SDS011;75222;52.004;5.908;2024-02-14T04:24:40;4.03;;;3.13;;
42036;SDS011;75222;52.004;5.908;2024-02-14T04:27:06;6.75;;;4.53;;
42036;SDS011;75222;52.004;5.908;2024-02-14T04:29:32;7.88;;;5.07;;
42036;SDS011;75222;52.004;5.908;2024-02-14T04:31:59;6.88;;;4.60;;
42036;SDS011;75222;52.004;5.908;2024-02-14T04:34:25;5.15;;;3.83;;
42036;SDS011;75222;52.004;5.908;2024-02-14T04:36:50;5.30;;;3.63;;
42036;SDS011;75222;52.004;5.908;2024-02-14T04:39:16;4.38;;;3.08;;
42036;SDS011;75222;52.004;5.908;2024-02-14T04:41:42;4.13;;;3.03;;
42036;SDS011;75222;52.004;5.908;2024-02-14T04:44:08;6.65;;;3.53;;
42036;SDS011;75222;52.004;5.908;2024-02-14T04:46:33;4.40;;;2.97;;
42036;SDS011;75222;52.004;5.908;2024-02-14T04:49:08;3.10;;;2.65;;
42036;SDS011;75222;52.004;5.908;2024-02-14T04:51:34;6.15;;;3.78;;
42036;SDS011;75222;52.004;5.908;2024-02-14T04:54:00;4.97;;;3.80;;
42036;SDS011;75222;52.004;5.908;2024-02-14T04:56:26;5.18;;;3.53;;
42036;SDS011;75222;52.004;5.908;2024-02-14T04:58:52;4.47;;;3.10;;
42036;SDS011;75222;52.004;5.908;2024-02-14T05:01:18;4.65;;;3.15;;
42036;SDS011;75222;52.004;5.908;2024-02-14T05:03:44;5.05;;;3.60;;
42036;SDS011;75222;52.004;5.908;2024-02-14T05:06:09;4.63;;;3.35;;
42036;SDS011;75222;52.004;5.908;2024-02-14T05:08:35;7.68;;;6.10;;
42036;SDS011;75222;52.004;5.908;2024-02-14T05:11:00;6.85;;;4.25;;
42036;SDS011;75222;52.004;5.908;2024-02-14T05:13:26;5.05;;;3.47;;
42036;SDS011;75222;52.004;5.908;2024-02-14T05:15:51;5.90;;;3.45;;
42036;SDS011;75222;52.004;5.908;2024-02-14T05:18:17;4.47;;;3.40;;
42036;SDS011;75222;52.004;5.908;2024-02-14T05:20:42;4.22;;;3.20;;
42036;SDS011;75222;52.004;5.908;2024-02-14T05:23:08;5.90;;;3.78;;
42036;SDS011;75222;52.004;5.908;2024-02-14T05:25:36;4.80;;;3.28;;
42036;SDS011;75222;52.004;5.908;2024-02-14T05:28:01;3.60;;;2.85;;
42036;SDS011;75222;52.004;5.908;2024-02-14T05:30:27;4.20;;;2.72;;
42036;SDS011;75222;52.004;5.908;2024-02-14T05:32:52;4.18;;;3.10;;
42036;SDS011;75222;52.004;5.908;2024-02-14T05:35:18;9.73;;;5.43;;
42036;SDS011;75222;52.004;5.908;2024-02-14T05:37:44;9.30;;;5.20;;
42036;SDS011;75222;52.004;5.908;2024-02-14T05:40:14;5.47;;;3.80;;
42036;SDS011;75222;52.004;5.908;2024-02-14T05:42:40;5.47;;;3.60;;
42036;SDS011;75222;52.004;5.908;2024-02-14T05:45:05;5.55;;;3.60;;
42036;SDS011;75222;52.004;5.908;2024-02-14T05:47:34;5.50;;;3.63;;
42036;SDS011;75222;52.004;5.908;2024-02-14T05:50:00;6.07;;;4.25;;
42036;SDS011;75222;52.004;5.908;2024-02-14T05:52:26;4.80;;;3.63;;
42036;SDS011;75222;52.004;5.908;2024-02-14T05:54:51;6.10;;;4.60;;
42036;SDS011;75222;52.004;5.908;2024-02-14T05:57:17;5.78;;;3.88;;
42036;SDS011;75222;52.004;5.908;2024-02-14T05:59:42;3.67;;;2.90;;
42036;SDS011;75222;52.004;5.908;2024-02-14T06:02:08;4.65;;;3.40;;
42036;SDS011;75222;52.004;5.908;2024-02-14T06:04:34;4.15;;;3.05;;
42036;SDS011;75222;52.004;5.908;2024-02-14T06:07:00;8.07;;;4.40;;
42036;SDS011;75222;52.004;5.908;2024-02-14T06:09:26;5.38;;;4.20;;
42036;SDS011;75222;52.004;5.908;2024-02-14T06:11:52;5.85;;;2.97;;
42036;SDS011;75222;52.004;5.908;2024-02-14T06:14:18;6.35;;;4.70;;
42036;SDS011;75222;52.004;5.908;2024-02-14T06:16:43;8.00;;;6.03;;
42036;SDS011;75222;52.004;5.908;2024-02-14T06:19:09;7.13;;;5.20;;
42036;SDS011;75222;52.004;5.908;2024-02-14T06:21:35;5.22;;;4.13;;
42036;SDS011;75222;52.004;5.908;2024-02-14T06:24:01;5.85;;;3.92;;
42036;SDS011;75222;52.004;5.908;2024-02-14T06:26:28;5.55;;;4.07;;
42036;SDS011;75222;52.004;5.908;2024-02-14T06:28:55;5.70;;;4.72;;
42036;SDS011;75222;52.004;5.908;2024-02-14T06:31:21;4.53;;;3.60;;
42036;SDS011;75222;52.004;5.908;2024-02-14T06:33:47;4.57;;;3.35;;
42036;SDS011;75222;52.004;5.908;2024-02-14T06:36:13;6.65;;;4.50;;
42036;SDS011;75222;52.004;5.908;2024-02-14T06:38:38;7.55;;;5.32;;
42036;SDS011;75222;52.004;5.908;2024-02-14T06:41:05;5.03;;;3.88;;
42036;SDS011;75222;52.004;5.908;2024-02-14T06:43:30;5.80;;;4.18;;
42036;SDS011;75222;52.004;5.908;2024-02-14T06:45:56;4.93;;;4.18;;
42036;SDS011;75222;52.004;5.908;2024-02-14T06:48:22;4.28;;;3.38;;
42036;SDS011;75222;52.004;5.908;2024-02-14T06:50:49;4.63;;;3.70;;
42036;SDS011;75222;52.004;5.908;2024-02-14T06:53:15;4.15;;;3.40;;
42036;SDS011;75222;52.004;5.908;2024-02-14T06:55:40;3.70;;;2.78;;
42036;SDS011;75222;52.004;5.908;2024-02-14T06:58:06;4.60;;;3.70;;
42036;SDS011;75222;52.004;5.908;2024-02-14T07:00:32;4.35;;;3.53;;
42036;SDS011;75222;52.004;5.908;2024-02-14T07:02:58;5.47;;;4.60;;
42036;SDS011;75222;52.004;5.908;2024-02-14T07:05:24;4.68;;;3.83;;
42036;SDS011;75222;52.004;5.908;2024-02-14T07:07:50;4.05;;;3.15;;
42036;SDS011;75222;52.004;5.908;2024-02-14T07:10:15;4.47;;;3.20;;
42036;SDS011;75222;52.004;5.908;2024-02-14T07:12:41;3.78;;;2.92;;
42036;SDS011;75222;52.004;5.908;2024-02-14T07:15:06;4.38;;;3.13;;
42036;SDS011;75222;52.004;5.908;2024-02-14T07:17:33;2.85;;;2.35;;
42036;SDS011;75222;52.004;5.908;2024-02-14T07:19:58;3.40;;;2.72;;
42036;SDS011;75222;52.004;5.908;2024-02-14T07:22:24;3.72;;;2.65;;
42036;SDS011;75222;52.004;5.908;2024-02-14T07:24:50;4.82;;;3.80;;
42036;SDS011;75222;52.004;5.908;2024-02-14T07:27:15;3.97;;;3.15;;
42036;SDS011;75222;52.004;5.908;2024-02-14T07:29:43;4.57;;;3.03;;
42036;SDS011;75222;52.004;5.908;2024-02-14T07:32:09;4.22;;;3.25;;
42036;SDS011;75222;52.004;5.908;2024-02-14T07:34:37;4.40;;;3.55;;
42036;SDS011;75222;52.004;5.908;2024-02-14T07:37:04;3.85;;;3.20;;
42036;SDS011;75222;52.004;5.908;2024-02-14T07:39:30;4.57;;;3.50;;
42036;SDS011;75222;52.004;5.908;2024-02-14T07:41:55;3.92;;;2.90;;
42036;SDS011;75222;52.004;5.908;2024-02-14T07:44:22;7.93;;;5.15;;
42036;SDS011;75222;52.004;5.908;2024-02-14T07:46:48;5.78;;;3.85;;
42036;SDS011;75222;52.004;5.908;2024-02-14T07:49:14;4.45;;;3.38;;
42036;SDS011;75222;52.004;5.908;2024-02-14T07:51:40;4.50;;;3.17;;
42036;SDS011;75222;52.004;5.908;2024-02-14T07:54:06;5.82;;;3.80;;
42036;SDS011;75222;52.004;5.908;2024-02-14T07:56:31;5.45;;;3.45;;
42036;SDS011;75222;52.004;5.908;2024-02-14T07:58:57;7.05;;;4.53;;
42036;SDS011;75222;52.004;5.908;2024-02-14T08:01:23;5.68;;;4.13;;
42036;SDS011;75222;52.004;5.908;2024-02-14T08:03:49;6.75;;;4.63;;
42036;SDS011;75222;52.004;5.908;2024-02-14T08:06:14;5.78;;;4.50;;
42036;SDS011;75222;52.004;5.908;2024-02-14T08:08:40;5.97;;;4.10;;
42036;SDS011;75222;52.004;5.908;2024-02-14T08:11:05;8.77;;;5.05;;
42036;SDS011;75222;52.004;5.908;2024-02-14T08:13:32;6.25;;;4.57;;
42036;SDS011;75222;52.004;5.908;2024-02-14T08:15:57;6.10;;;4.75;;
42036;SDS011;75222;52.004;5.908;2024-02-14T08:18:23;7.38;;;4.30;;
42036;SDS011;75222;52.004;5.908;2024-02-14T08:20:49;5.40;;;3.90;;
42036;SDS011;75222;52.004;5.908;2024-02-14T08:23:17;4.57;;;3.50;;
42036;SDS011;75222;52.004;5.908;2024-02-14T08:25:43;6.70;;;4.45;;
42036;SDS011;75222;52.004;5.908;2024-02-14T08:28:09;8.07;;;5.93;;
42036;SDS011;75222;52.004;5.908;2024-02-14T08:30:34;5.93;;;4.25;;
42036;SDS011;75222;52.004;5.908;2024-02-14T08:33:00;6.22;;;4.55;;
42036;SDS011;75222;52.004;5.908;2024-02-14T08:35:26;5.55;;;4.20;;
42036;SDS011;75222;52.004;5.908;2024-02-14T08:37:51;4.00;;;2.97;;
42036;SDS011;75222;52.004;5.908;2024-02-14T08:40:17;3.58;;;2.90;;
42036;SDS011;75222;52.004;5.908;2024-02-14T08:42:42;4.20;;;3.10;;
42036;SDS011;75222;52.004;5.908;2024-02-14T08:45:08;5.25;;;3.63;;
42036;SDS011;75222;52.004;5.908;2024-02-14T08:47:35;5.25;;;3.63;;
42036;SDS011;75222;52.004;5.908;2024-02-14T08:50:01;5.28;;;3.33;;
42036;SDS011;75222;52.004;5.908;2024-02-14T08:52:28;5.07;;;3.92;;
42036;SDS011;75222;52.004;5.908;2024-02-14T08:54:54;4.45;;;3.10;;
42036;SDS011;75222;52.004;5.908;2024-02-14T08:57:19;5.07;;;3.28;;
42036;SDS011;75222;52.004;5.908;2024-02-14T08:59:45;3.45;;;2.80;;
42036;SDS011;75222;52.004;5.908;2024-02-14T09:02:12;5.05;;;3.55;;
42036;SDS011;75222;52.004;5.908;2024-02-14T09:04:38;4.68;;;3.40;;
42036;SDS011;75222;52.004;5.908;2024-02-14T09:07:06;5.32;;;3.65;;
42036;SDS011;75222;52.004;5.908;2024-02-14T09:09:32;5.85;;;3.60;;
42036;SDS011;75222;52.004;5.908;2024-02-14T09:11:58;5.00;;;2.80;;
42036;SDS011;75222;52.004;5.908;2024-02-14T09:14:27;6.20;;;4.15;;
42036;SDS011;75222;52.004;5.908;2024-02-14T09:16:53;5.85;;;4.40;;
42036;SDS011;75222;52.004;5.908;2024-02-14T09:19:19;4.55;;;3.00;;
42036;SDS011;75222;52.004;5.908;2024-02-14T09:21:44;7.30;;;5.03;;
42036;SDS011;75222;52.004;5.908;2024-02-14T09:24:10;4.78;;;3.72;;
42036;SDS011;75222;52.004;5.908;2024-02-14T09:26:36;5.32;;;3.95;;
42036;SDS011;75222;52.004;5.908;2024-02-14T09:29:03;4.32;;;3.00;;
42036;SDS011;75222;52.004;5.908;2024-02-14T09:31:28;5.40;;;3.05;;
42036;SDS011;75222;52.004;5.908;2024-02-14T09:33:54;4.40;;;3.30;;
42036;SDS011;75222;52.004;5.908;2024-02-14T09:36:22;4.88;;;3.13;;
42036;SDS011;75222;52.004;5.908;2024-02-14T09:38:48;4.57;;;3.40;;
42036;SDS011;75222;52.004;5.908;2024-02-14T09:41:25;4.18;;;2.97;;
42036;SDS011;75222;52.004;5.908;2024-02-14T09:43:55;4.50;;;2.80;;
42036;SDS011;75222;52.004;5.908;2024-02-14T09:46:21;2.88;;;2.40;;
42036;SDS011;75222;52.004;5.908;2024-02-14T09:48:49;3.42;;;2.35;;
42036;SDS011;75222;52.004;5.908;2024-02-14T09:51:17;3.45;;;2.67;;
42036;SDS011;75222;52.004;5.908;2024-02-14T09:53:42;3.55;;;2.58;;
42036;SDS011;75222;52.004;5.908;2024-02-14T09:56:10;3.75;;;2.67;;
42036;SDS011;75222;52.004;5.908;2024-02-14T09:58:36;4.07;;;2.80;;
42036;SDS011;75222;52.004;5.908;2024-02-14T10:01:06;5.38;;;3.50;;
42036;SDS011;75222;52.004;5.908;2024-02-14T10:03:32;6.35;;;4.70;;
42036;SDS011;75222;52.004;5.908;2024-02-14T10:05:59;6.00;;;3.17;;
42036;SDS011;75222;52.004;5.908;2024-02-14T10:08:24;4.93;;;3.22;;
42036;SDS011;75222;52.004;5.908;2024-02-14T10:10:51;5.13;;;3.67;;
42036;SDS011;75222;52.004;5.908;2024-02-14T10:13:17;7.03;;;4.07;;
42036;SDS011;75222;52.004;5.908;2024-02-14T10:15:43;4.80;;;3.25;;
42036;SDS011;75222;52.004;5.908;2024-02-14T10:18:08;6.00;;;3.67;;
42036;SDS011;75222;52.004;5.908;2024-02-14T10:20:34;6.57;;;3.70;;
42036;SDS011;75222;52.004;5.908;2024-02-14T10:23:05;5.03;;;3.55;;
42036;SDS011;75222;52.004;5.908;2024-02-14T10:25:34;5.70;;;3.28;;
42036;SDS011;75222;52.004;5.908;2024-02-14T10:28:06;6.68;;;4.55;;
42036;SDS011;75222;52.004;5.908;2024-02-14T10:30:34;6.40;;;4.10;;
42036;SDS011;75222;52.004;5.908;2024-02-14T10:33:07;5.15;;;3.15;;
42036;SDS011;75222;52.004;5.908;2024-02-14T10:35:33;3.95;;;2.30;;
42036;SDS011;75222;52.004;5.908;2024-02-14T10:38:02;6.38;;;4.03;;
42036;SDS011;75222;52.004;5.908;2024-02-14T10:40:28;4.78;;;3.20;;
42036;SDS011;75222;52.004;5.908;2024-02-14T10:42:56;5.13;;;3.85;;
42036;SDS011;75222;52.004;5.908;2024-02-14T10:45:23;4.90;;;3.33;;
42036;SDS011;75222;52.004;5.908;2024-02-14T10:47:52;7.93;;;4.13;;
42036;SDS011;75222;52.004;5.908;2024-02-14T10:50:22;5.33;;;3.43;;
42036;SDS011;75222;52.004;5.908;2024-02-14T10:52:49;4.85;;;3.30;;
42036;SDS011;75222;52.004;5.908;2024-02-14T10:55:18;5.50;;;3.55;;
42036;SDS011;75222;52.004;5.908;2024-02-14T10:57:48;4.72;;;3.15;;
42036;SDS011;75222;52.004;5.908;2024-02-14T11:00:15;6.15;;;4.15;;
42036;SDS011;75222;52.004;5.908;2024-02-14T11:02:43;4.95;;;3.30;;
42036;SDS011;75222;52.004;5.908;2024-02-14T11:05:15;6.90;;;3.80;;
42036;SDS011;75222;52.004;5.908;2024-02-14T11:07:47;5.05;;;3.15;;
42036;SDS011;75222;52.004;5.908;2024-02-14T11:10:14;3.72;;;2.63;;
42036;SDS011;75222;52.004;5.908;2024-02-14T11:12:41;10.50;;;6.25;;
42036;SDS011;75222;52.004;5.908;2024-02-14T11:17:47;4.50;;;3.10;;
42036;SDS011;75222;52.004;5.908;2024-02-14T11:20:31;8.68;;;5.55;;
42036;SDS011;75222;52.004;5.908;2024-02-14T11:23:01;7.60;;;4.75;;
42036;SDS011;75222;52.004;5.908;2024-02-14T11:25:34;7.50;;;5.68;;
42036;SDS011;75222;52.004;5.908;2024-02-14T11:28:00;5.88;;;3.97;;
42036;SDS011;75222;52.004;5.908;2024-02-14T11:30:39;6.32;;;4.30;;
42036;SDS011;75222;52.004;5.908;2024-02-14T11:35:50;6.65;;;4.45;;
42036;SDS011;75222;52.004;5.908;2024-02-14T11:38:21;6.10;;;3.33;;
42036;SDS011;75222;52.004;5.908;2024-02-14T11:40:54;5.32;;;3.45;;
42036;SDS011;75222;52.004;5.908;2024-02-14T11:43:23;6.68;;;4.10;;
42036;SDS011;75222;52.004;5.908;2024-02-14T11:45:49;9.40;;;6.15;;
42036;SDS011;75222;52.004;5.908;2024-02-14T11:48:17;5.78;;;3.70;;
42036;SDS011;75222;52.004;5.908;2024-02-14T11:50:43;9.18;;;4.90;;
42036;SDS011;75222;52.004;5.908;2024-02-14T11:53:10;6.45;;;4.22;;
42036;SDS011;75222;52.004;5.908;2024-02-14T11:55:37;5.70;;;3.40;;
42036;SDS011;75222;52.004;5.908;2024-02-14T11:58:06;4.70;;;2.38;;
42036;SDS011;75222;52.004;5.908;2024-02-14T12:00:33;3.42;;;2.70;;
42036;SDS011;75222;52.004;5.908;2024-02-14T12:03:00;4.88;;;3.20;;
42036;SDS011;75222;52.004;5.908;2024-02-14T12:05:26;7.28;;;4.93;;
42036;SDS011;75222;52.004;5.908;2024-02-14T12:07:52;6.07;;;3.70;;
42036;SDS011;75222;52.004;5.908;2024-02-14T12:10:19;4.82;;;2.92;;
42036;SDS011;75222;52.004;5.908;2024-02-14T12:12:47;3.97;;;2.78;;
42036;SDS011;75222;52.004;5.908;2024-02-14T12:15:12;4.85;;;2.47;;
42036;SDS011;75222;52.004;5.908;2024-02-14T12:17:40;6.20;;;2.42;;
42036;SDS011;75222;52.004;5.908;2024-02-14T12:20:10;4.22;;;2.42;;
42036;SDS011;75222;52.004;5.908;2024-02-14T12:22:38;5.82;;;3.03;;
42036;SDS011;75222;52.004;5.908;2024-02-14T12:25:05;4.53;;;3.00;;
42036;SDS011;75222;52.004;5.908;2024-02-14T12:27:32;5.15;;;3.50;;
42036;SDS011;75222;52.004;5.908;2024-02-14T12:29:58;5.57;;;4.13;;
42036;SDS011;75222;52.004;5.908;2024-02-14T12:32:24;3.63;;;3.00;;
42036;SDS011;75222;52.004;5.908;2024-02-14T12:34:50;5.95;;;4.10;;
42036;SDS011;75222;52.004;5.908;2024-02-14T12:37:15;5.32;;;3.50;;
42036;SDS011;75222;52.004;5.908;2024-02-14T12:39:41;6.13;;;4.05;;
42036;SDS011;75222;52.004;5.908;2024-02-14T12:42:06;5.82;;;3.45;;
42036;SDS011;75222;52.004;5.908;2024-02-14T12:44:32;3.65;;;2.40;;
42036;SDS011;75222;52.004;5.908;2024-02-14T12:46:57;3.20;;;2.22;;
42036;SDS011;75222;52.004;5.908;2024-02-14T12:49:23;3.85;;;2.25;;
42036;SDS011;75222;52.004;5.908;2024-02-14T12:51:51;8.00;;;4.93;;
42036;SDS011;75222;52.004;5.908;2024-02-14T12:54:16;4.95;;;3.30;;
42036;SDS011;75222;52.004;5.908;2024-02-14T12:56:42;5.97;;;2.72;;
42036;SDS011;75222;52.004;5.908;2024-02-14T12:59:08;4.93;;;3.50;;
42036;SDS011;75222;52.004;5.908;2024-02-14T13:01:40;3.60;;;2.58;;
42036;SDS011;75222;52.004;5.908;2024-02-14T13:04:05;4.32;;;3.00;;
42036;SDS011;75222;52.004;5.908;2024-02-14T13:06:32;2.60;;;2.00;;
42036;SDS011;75222;52.004;5.908;2024-02-14T13:08:59;2.95;;;2.00;;
42036;SDS011;75222;52.004;5.908;2024-02-14T13:11:25;2.92;;;2.15;;
42036;SDS011;75222;52.004;5.908;2024-02-14T13:13:50;2.15;;;1.80;;
42036;SDS011;75222;52.004;5.908;2024-02-14T13:16:16;1.70;;;1.40;;
42036;SDS011;75222;52.004;5.908;2024-02-14T13:18:41;1.50;;;1.40;;
42036;SDS011;75222;52.004;5.908;2024-02-14T13:21:07;2.03;;;1.80;;
42036;SDS011;75222;52.004;5.908;2024-02-14T13:23:32;2.10;;;1.60;;
42036;SDS011;75222;52.004;5.908;2024-02-14T13:25:58;1.70;;;1.60;;
42036;SDS011;75222;52.004;5.908;2024-02-14T13:28:24;2.00;;;1.50;;
42036;SDS011;75222;52.004;5.908;2024-02-14T13:30:49;2.58;;;1.83;;
42036;SDS011;75222;52.004;5.908;2024-02-14T13:33:15;2.38;;;1.90;;
42036;SDS011;75222;52.004;5.908;2024-02-14T13:35:40;2.70;;;2.22;;
42036;SDS011;75222;52.004;5.908;2024-02-14T13:38:06;2.17;;;1.90;;
42036;SDS011;75222;52.004;5.908;2024-02-14T13:40:32;2.35;;;1.70;;
42036;SDS011;75222;52.004;5.908;2024-02-14T13:42:57;3.47;;;2.28;;
42036;SDS011;75222;52.004;5.908;2024-02-14T13:45:23;2.40;;;1.90;;
42036;SDS011;75222;52.004;5.908;2024-02-14T13:47:49;2.30;;;1.80;;
42036;SDS011;75222;52.004;5.908;2024-02-14T13:50:16;2.50;;;2.00;;
42036;SDS011;75222;52.004;5.908;2024-02-14T13:52:41;2.05;;;1.77;;
42036;SDS011;75222;52.004;5.908;2024-02-14T13:55:07;1.73;;;1.50;;
42036;SDS011;75222;52.004;5.908;2024-02-14T13:57:36;2.75;;;2.30;;
42036;SDS011;75222;52.004;5.908;2024-02-14T14:00:06;1.50;;;1.40;;
42036;SDS011;75222;52.004;5.908;2024-02-14T14:02:36;2.15;;;1.70;;
42036;SDS011;75222;52.004;5.908;2024-02-14T14:05:07;1.55;;;1.40;;
42036;SDS011;75222;52.004;5.908;2024-02-14T14:07:34;2.40;;;1.90;;
42036;SDS011;75222;52.004;5.908;2024-02-14T14:10:01;2.95;;;2.33;;
42036;SDS011;75222;52.004;5.908;2024-02-14T14:12:28;1.85;;;1.60;;
42036;SDS011;75222;52.004;5.908;2024-02-14T14:14:53;2.35;;;1.90;;
42036;SDS011;75222;52.004;5.908;2024-02-14T14:17:19;2.90;;;2.30;;
42036;SDS011;75222;52.004;5.908;2024-02-14T14:19:45;3.03;;;2.45;;
42036;SDS011;75222;52.004;5.908;2024-02-14T14:22:10;3.83;;;2.50;;
42036;SDS011;75222;52.004;5.908;2024-02-14T14:24:36;3.35;;;2.70;;
42036;SDS011;75222;52.004;5.908;2024-02-14T14:27:01;3.58;;;2.55;;
42036;SDS011;75222;52.004;5.908;2024-02-14T14:29:27;3.30;;;2.30;;
42036;SDS011;75222;52.004;5.908;2024-02-14T14:31:53;5.88;;;3.40;;
42036;SDS011;75222;52.004;5.908;2024-02-14T14:34:19;2.60;;;2.35;;
42036;SDS011;75222;52.004;5.908;2024-02-14T14:36:45;2.67;;;2.20;;
42036;SDS011;75222;52.004;5.908;2024-02-14T14:39:10;3.13;;;2.35;;
42036;SDS011;75222;52.004;5.908;2024-02-14T14:41:37;3.78;;;2.90;;
42036;SDS011;75222;52.004;5.908;2024-02-14T14:44:03;4.05;;;3.20;;
42036;SDS011;75222;52.004;5.908;2024-02-14T14:46:29;3.20;;;2.28;;
42036;SDS011;75222;52.004;5.908;2024-02-14T14:48:57;3.30;;;2.05;;
42036;SDS011;75222;52.004;5.908;2024-02-14T14:51:23;3.58;;;2.35;;